Decoded Metar for KGOV (GRAYLING AF in MI, USA) (IATA:GOV) | Meteo·Mobile Aviation Weather
aviador You're here:

KGOV Decoded Metar

GRAYLING AF in MI, USA
Report Time2018-11-16 02:33:00
UTC Time2018-11-16 02:59:33
Flight Rules mvfr MVFR
WindCalm
Visibility6437 m
Phenomena:Light Snow
Mist
Clouds:Overcast 015 Hf
Ceiling1,500 ft
Temp-1°C (ISA -14)
Dew Point-1°C (100% RH)
AAT-3.1°C
QNH1010 hPa
Density Alt-331 ft
Elevation1,158 ft
Report Wrong Elevation
Raw Report
KGOV 160233Z AUTO 00000KT 4SM -SN BR OVC015 M01/M01 A2982 RMK AO2
CIG 011V015 SLP122 $=

Extra information for KGOV:More info

Metar Taf Metar & Taf Last 4 Metars F.Rules Stats Wind Profile Meteogram Temp Stats Airport Information Weather charts Add Link Nearby VenuesMetar ALERT Operation Metar Decoded Social comments

AIRNAV info for KGOV